sensor_id;sensor_type;location;lat;lon;timestamp;temperature;humidity
77693;SHT31;66984;47.404;18.836;2023-06-22T00:00:53;24.00;77.64
77693;SHT31;66984;47.404;18.836;2023-06-22T00:01:56;23.98;77.60
77693;SHT31;66984;47.404;18.836;2023-06-22T00:03:05;23.98;77.42
77693;SHT31;66984;47.404;18.836;2023-06-22T00:04:08;23.97;77.41
77693;SHT31;66984;47.404;18.836;2023-06-22T00:05:11;23.94;77.52
77693;SHT31;66984;47.404;18.836;2023-06-22T00:06:14;23.80;78.26
77693;SHT31;66984;47.404;18.836;2023-06-22T00:07:24;23.70;78.39
77693;SHT31;66984;47.404;18.836;2023-06-22T00:08:34;23.73;78.35
77693;SHT31;66984;47.404;18.836;2023-06-22T00:09:43;23.79;78.39
77693;SHT31;66984;47.404;18.836;2023-06-22T00:10:52;23.79;78.43
77693;SHT31;66984;47.404;18.836;2023-06-22T00:11:55;23.83;78.58
77693;SHT31;66984;47.404;18.836;2023-06-22T00:12:58;23.86;78.60
77693;SHT31;66984;47.404;18.836;2023-06-22T00:14:01;23.80;78.51
77693;SHT31;66984;47.404;18.836;2023-06-22T00:15:05;23.79;78.88
77693;SHT31;66984;47.404;18.836;2023-06-22T00:16:14;23.71;78.87
77693;SHT31;66984;47.404;18.836;2023-06-22T00:17:17;23.69;78.72
77693;SHT31;66984;47.404;18.836;2023-06-22T00:18:21;23.67;78.64
77693;SHT31;66984;47.404;18.836;2023-06-22T00:19:24;23.67;77.37
77693;SHT31;66984;47.404;18.836;2023-06-22T00:20:26;23.65;77.18
77693;SHT31;66984;47.404;18.836;2023-06-22T00:21:40;23.66;76.89
77693;SHT31;66984;47.404;18.836;2023-06-22T00:22:42;23.69;76.87
77693;SHT31;66984;47.404;18.836;2023-06-22T00:23:46;23.67;76.96
77693;SHT31;66984;47.404;18.836;2023-06-22T00:24:49;23.69;77.09
77693;SHT31;66984;47.404;18.836;2023-06-22T00:25:52;23.66;77.25
77693;SHT31;66984;47.404;18.836;2023-06-22T00:27:02;23.67;77.47
77693;SHT31;66984;47.404;18.836;2023-06-22T00:28:05;23.70;77.53
77693;SHT31;66984;47.404;18.836;2023-06-22T00:29:08;23.70;77.53
77693;SHT31;66984;47.404;18.836;2023-06-22T00:30:11;23.73;77.56
77693;SHT31;66984;47.404;18.836;2023-06-22T00:31:14;23.74;77.80
77693;SHT31;66984;47.404;18.836;2023-06-22T00:32:24;23.77;77.66
77693;SHT31;66984;47.404;18.836;2023-06-22T00:33:27;23.77;77.52
77693;SHT31;66984;47.404;18.836;2023-06-22T00:34:31;23.77;77.49
77693;SHT31;66984;47.404;18.836;2023-06-22T00:35:33;23.77;77.44
77693;SHT31;66984;47.404;18.836;2023-06-22T00:36:36;23.81;77.42
77693;SHT31;66984;47.404;18.836;2023-06-22T00:37:46;23.81;77.37
77693;SHT31;66984;47.404;18.836;2023-06-22T00:38:48;23.80;77.17
77693;SHT31;66984;47.404;18.836;2023-06-22T00:39:53;23.80;77.31
77693;SHT31;66984;47.404;18.836;2023-06-22T00:41:03;23.79;77.66
77693;SHT31;66984;47.404;18.836;2023-06-22T00:42:06;23.65;78.14
77693;SHT31;66984;47.404;18.836;2023-06-22T00:43:09;23.52;77.80
77693;SHT31;66984;47.404;18.836;2023-06-22T00:44:11;23.42;77.74
77693;SHT31;66984;47.404;18.836;2023-06-22T00:45:15;23.35;77.90
77693;SHT31;66984;47.404;18.836;2023-06-22T00:46:25;23.43;77.89
77693;SHT31;66984;47.404;18.836;2023-06-22T00:47:28;23.43;77.91
77693;SHT31;66984;47.404;18.836;2023-06-22T00:48:31;23.49;78.02
77693;SHT31;66984;47.404;18.836;2023-06-22T00:49:34;23.50;78.12
77693;SHT31;66984;47.404;18.836;2023-06-22T00:50:38;23.53;78.07
77693;SHT31;66984;47.404;18.836;2023-06-22T00:51:48;23.58;77.92
77693;SHT31;66984;47.404;18.836;2023-06-22T00:52:53;23.60;77.74
77693;SHT31;66984;47.404;18.836;2023-06-22T00:53:56;23.63;77.81
77693;SHT31;66984;47.404;18.836;2023-06-22T00:54:59;23.60;77.87
77693;SHT31;66984;47.404;18.836;2023-06-22T00:56:04;23.59;77.81
77693;SHT31;66984;47.404;18.836;2023-06-22T00:57:15;23.53;77.60
77693;SHT31;66984;47.404;18.836;2023-06-22T00:58:19;23.49;77.42
77693;SHT31;66984;47.404;18.836;2023-06-22T00:59:24;23.45;77.55
77693;SHT31;66984;47.404;18.836;2023-06-22T01:00:28;23.38;77.51
77693;SHT31;66984;47.404;18.836;2023-06-22T01:01:32;23.39;77.44
77693;SHT31;66984;47.404;18.836;2023-06-22T01:02:43;23.43;77.53
77693;SHT31;66984;47.404;18.836;2023-06-22T01:03:50;23.48;77.10
77693;SHT31;66984;47.404;18.836;2023-06-22T01:04:53;23.50;76.76
77693;SHT31;66984;47.404;18.836;2023-06-22T01:06:08;23.49;76.78
77693;SHT31;66984;47.404;18.836;2023-06-22T01:07:35;23.46;76.82
77693;SHT31;66984;47.404;18.836;2023-06-22T01:09:12;23.41;77.20
77693;SHT31;66984;47.404;18.836;2023-06-22T01:10:26;23.30;77.10
77693;SHT31;66984;47.404;18.836;2023-06-22T01:11:40;23.33;77.13
77693;SHT31;66984;47.404;18.836;2023-06-22T01:12:52;23.30;77.13
77693;SHT31;66984;47.404;18.836;2023-06-22T01:14:07;23.35;76.95
77693;SHT31;66984;47.404;18.836;2023-06-22T01:15:21;23.35;76.68
77693;SHT31;66984;47.404;18.836;2023-06-22T01:16:34;23.37;76.54
77693;SHT31;66984;47.404;18.836;2023-06-22T01:17:40;23.32;76.54
77693;SHT31;66984;47.404;18.836;2023-06-22T01:18:47;23.29;76.58
77693;SHT31;66984;47.404;18.836;2023-06-22T01:20:00;23.28;76.43
77693;SHT31;66984;47.404;18.836;2023-06-22T01:21:04;23.25;76.40
77693;SHT31;66984;47.404;18.836;2023-06-22T01:22:13;23.18;76.72
77693;SHT31;66984;47.404;18.836;2023-06-22T01:25:19;23.19;76.40
77693;SHT31;66984;47.404;18.836;2023-06-22T01:28:05;23.18;76.57
77693;SHT31;66984;47.404;18.836;2023-06-22T01:29:19;23.16;76.69
77693;SHT31;66984;47.404;18.836;2023-06-22T01:30:30;23.18;76.58
77693;SHT31;66984;47.404;18.836;2023-06-22T01:31:34;23.18;76.38
77693;SHT31;66984;47.404;18.836;2023-06-22T01:32:39;23.22;75.90
77693;SHT31;66984;47.404;18.836;2023-06-22T01:33:45;23.16;75.98
77693;SHT31;66984;47.404;18.836;2023-06-22T01:34:49;23.15;76.20
77693;SHT31;66984;47.404;18.836;2023-06-22T01:36:00;23.12;76.29
77693;SHT31;66984;47.404;18.836;2023-06-22T01:37:04;23.14;76.28
77693;SHT31;66984;47.404;18.836;2023-06-22T01:38:08;23.15;76.11
77693;SHT31;66984;47.404;18.836;2023-06-22T01:39:12;23.16;76.43
77693;SHT31;66984;47.404;18.836;2023-06-22T01:40:17;23.14;76.44
77693;SHT31;66984;47.404;18.836;2023-06-22T01:41:29;23.12;76.52
77693;SHT31;66984;47.404;18.836;2023-06-22T01:42:39;23.12;76.59
77693;SHT31;66984;47.404;18.836;2023-06-22T01:43:42;23.12;76.63
77693;SHT31;66984;47.404;18.836;2023-06-22T01:44:46;23.12;76.68
77693;SHT31;66984;47.404;18.836;2023-06-22T01:45:50;23.14;76.73
77693;SHT31;66984;47.404;18.836;2023-06-22T01:46:53;23.11;76.80
77693;SHT31;66984;47.404;18.836;2023-06-22T01:48:04;23.11;77.00
77693;SHT31;66984;47.404;18.836;2023-06-22T01:49:08;23.02;76.88
77693;SHT31;66984;47.404;18.836;2023-06-22T01:50:12;23.05;76.87
77693;SHT31;66984;47.404;18.836;2023-06-22T01:51:15;23.04;76.86
77693;SHT31;66984;47.404;18.836;2023-06-22T01:52:19;23.07;76.89
77693;SHT31;66984;47.404;18.836;2023-06-22T01:53:30;23.07;76.92
77693;SHT31;66984;47.404;18.836;2023-06-22T01:54:33;23.11;76.98
77693;SHT31;66984;47.404;18.836;2023-06-22T01:55:36;23.14;77.09
77693;SHT31;66984;47.404;18.836;2023-06-22T01:56:39;23.12;77.19
77693;SHT31;66984;47.404;18.836;2023-06-22T01:57:42;23.05;77.27
77693;SHT31;66984;47.404;18.836;2023-06-22T01:59:00;23.04;77.52
77693;SHT31;66984;47.404;18.836;2023-06-22T02:00:07;23.05;77.49
77693;SHT31;66984;47.404;18.836;2023-06-22T02:01:24;23.05;77.39
77693;SHT31;66984;47.404;18.836;2023-06-22T02:02:37;23.05;77.33
77693;SHT31;66984;47.404;18.836;2023-06-22T02:03:44;23.07;77.19
77693;SHT31;66984;47.404;18.836;2023-06-22T02:05:00;23.04;76.97
77693;SHT31;66984;47.404;18.836;2023-06-22T02:06:07;23.01;76.71
77693;SHT31;66984;47.404;18.836;2023-06-22T02:07:14;22.94;76.24
77693;SHT31;66984;47.404;18.836;2023-06-22T02:08:35;22.88;76.18
77693;SHT31;66984;47.404;18.836;2023-06-22T02:09:48;22.91;76.05
77693;SHT31;66984;47.404;18.836;2023-06-22T02:10:55;22.92;76.07
77693;SHT31;66984;47.404;18.836;2023-06-22T02:12:00;22.95;76.18
77693;SHT31;66984;47.404;18.836;2023-06-22T02:13:11;22.97;76.26
77693;SHT31;66984;47.404;18.836;2023-06-22T02:14:15;23.01;76.46
77693;SHT31;66984;47.404;18.836;2023-06-22T02:15:20;23.00;76.57
77693;SHT31;66984;47.404;18.836;2023-06-22T02:16:23;23.00;76.74
77693;SHT31;66984;47.404;18.836;2023-06-22T02:17:26;22.91;76.24
77693;SHT31;66984;47.404;18.836;2023-06-22T02:18:36;22.84;76.14
77693;SHT31;66984;47.404;18.836;2023-06-22T02:19:42;22.80;76.07
77693;SHT31;66984;47.404;18.836;2023-06-22T02:20:45;22.75;76.13
77693;SHT31;66984;47.404;18.836;2023-06-22T02:21:48;22.80;76.10
77693;SHT31;66984;47.404;18.836;2023-06-22T02:22:51;22.81;76.01
77693;SHT31;66984;47.404;18.836;2023-06-22T02:24:01;22.86;76.50
77693;SHT31;66984;47.404;18.836;2023-06-22T02:25:04;22.90;76.68
77693;SHT31;66984;47.404;18.836;2023-06-22T02:26:07;22.87;76.80
77693;SHT31;66984;47.404;18.836;2023-06-22T02:27:10;22.90;76.83
77693;SHT31;66984;47.404;18.836;2023-06-22T02:28:13;22.90;76.87
77693;SHT31;66984;47.404;18.836;2023-06-22T02:29:23;22.91;76.78
77693;SHT31;66984;47.404;18.836;2023-06-22T02:30:35;22.91;76.76
77693;SHT31;66984;47.404;18.836;2023-06-22T02:31:38;22.91;76.81
77693;SHT31;66984;47.404;18.836;2023-06-22T02:32:41;22.91;76.69
77693;SHT31;66984;47.404;18.836;2023-06-22T02:33:45;22.90;76.71
77693;SHT31;66984;47.404;18.836;2023-06-22T02:34:54;22.87;76.92
77693;SHT31;66984;47.404;18.836;2023-06-22T02:35:57;22.83;77.17
77693;SHT31;66984;47.404;18.836;2023-06-22T02:37:00;22.83;77.18
77693;SHT31;66984;47.404;18.836;2023-06-22T02:38:05;22.80;77.30
77693;SHT31;66984;47.404;18.836;2023-06-22T02:39:08;22.81;77.25
77693;SHT31;66984;47.404;18.836;2023-06-22T02:40:18;22.86;77.24
77693;SHT31;66984;47.404;18.836;2023-06-22T02:41:21;22.81;77.25
77693;SHT31;66984;47.404;18.836;2023-06-22T02:42:24;22.83;77.27
77693;SHT31;66984;47.404;18.836;2023-06-22T02:43:27;22.84;77.26
77693;SHT31;66984;47.404;18.836;2023-06-22T02:44:30;22.83;77.32
77693;SHT31;66984;47.404;18.836;2023-06-22T02:45:39;22.84;77.30
77693;SHT31;66984;47.404;18.836;2023-06-22T02:46:42;22.83;77.30
77693;SHT31;66984;47.404;18.836;2023-06-22T02:47:45;22.84;77.35
77693;SHT31;66984;47.404;18.836;2023-06-22T02:48:48;22.80;77.39
77693;SHT31;66984;47.404;18.836;2023-06-22T02:49:51;22.78;77.39
77693;SHT31;66984;47.404;18.836;2023-06-22T02:51:00;22.77;77.43
77693;SHT31;66984;47.404;18.836;2023-06-22T02:52:03;22.80;77.44
77693;SHT31;66984;47.404;18.836;2023-06-22T02:53:06;22.81;77.43
77693;SHT31;66984;47.404;18.836;2023-06-22T02:54:09;22.81;77.36
77693;SHT31;66984;47.404;18.836;2023-06-22T02:55:12;22.80;77.43
77693;SHT31;66984;47.404;18.836;2023-06-22T02:56:21;22.80;77.44
77693;SHT31;66984;47.404;18.836;2023-06-22T02:57:27;22.77;77.47
77693;SHT31;66984;47.404;18.836;2023-06-22T02:58:31;22.75;77.56
77693;SHT31;66984;47.404;18.836;2023-06-22T02:59:41;22.75;77.57
77693;SHT31;66984;47.404;18.836;2023-06-22T03:00:44;22.74;77.44
77693;SHT31;66984;47.404;18.836;2023-06-22T03:01:54;22.71;77.60
77693;SHT31;66984;47.404;18.836;2023-06-22T03:02:58;22.74;77.68
77693;SHT31;66984;47.404;18.836;2023-06-22T03:04:01;22.71;77.61
77693;SHT31;66984;47.404;18.836;2023-06-22T03:05:04;22.78;77.56
77693;SHT31;66984;47.404;18.836;2023-06-22T03:06:08;22.78;77.56
77693;SHT31;66984;47.404;18.836;2023-06-22T03:07:23;22.75;77.50
77693;SHT31;66984;47.404;18.836;2023-06-22T03:08:38;22.75;77.41
77693;SHT31;66984;47.404;18.836;2023-06-22T03:09:41;22.74;77.41
77693;SHT31;66984;47.404;18.836;2023-06-22T03:10:44;22.74;77.37
77693;SHT31;66984;47.404;18.836;2023-06-22T03:11:47;22.71;77.41
77693;SHT31;66984;47.404;18.836;2023-06-22T03:12:57;22.65;77.53
77693;SHT31;66984;47.404;18.836;2023-06-22T03:14:06;22.68;77.59
77693;SHT31;66984;47.404;18.836;2023-06-22T03:15:11;22.68;77.69
77693;SHT31;66984;47.404;18.836;2023-06-22T03:16:14;22.68;77.65
77693;SHT31;66984;47.404;18.836;2023-06-22T03:17:17;22.70;77.68
77693;SHT31;66984;47.404;18.836;2023-06-22T03:18:20;22.70;77.70
77693;SHT31;66984;47.404;18.836;2023-06-22T03:19:31;22.72;77.70
77693;SHT31;66984;47.404;18.836;2023-06-22T03:20:34;22.72;77.68
77693;SHT31;66984;47.404;18.836;2023-06-22T03:21:38;22.74;77.68
77693;SHT31;66984;47.404;18.836;2023-06-22T03:22:43;22.75;77.65
77693;SHT31;66984;47.404;18.836;2023-06-22T03:23:46;22.72;77.60
77693;SHT31;66984;47.404;18.836;2023-06-22T03:24:55;22.75;77.58
77693;SHT31;66984;47.404;18.836;2023-06-22T03:25:58;22.78;77.55
77693;SHT31;66984;47.404;18.836;2023-06-22T03:27:01;22.81;77.58
77693;SHT31;66984;47.404;18.836;2023-06-22T03:28:07;22.78;77.54
77693;SHT31;66984;47.404;18.836;2023-06-22T03:29:16;22.78;77.53
77693;SHT31;66984;47.404;18.836;2023-06-22T03:30:19;22.77;77.50
77693;SHT31;66984;47.404;18.836;2023-06-22T03:31:22;22.77;77.61
77693;SHT31;66984;47.404;18.836;2023-06-22T03:32:25;22.75;77.66
77693;SHT31;66984;47.404;18.836;2023-06-22T03:33:30;22.78;77.70
77693;SHT31;66984;47.404;18.836;2023-06-22T03:34:39;22.78;77.72
77693;SHT31;66984;47.404;18.836;2023-06-22T03:35:42;22.78;77.66
77693;SHT31;66984;47.404;18.836;2023-06-22T03:36:45;22.80;77.64
77693;SHT31;66984;47.404;18.836;2023-06-22T03:37:48;22.83;77.62
77693;SHT31;66984;47.404;18.836;2023-06-22T03:38:51;22.83;77.51
77693;SHT31;66984;47.404;18.836;2023-06-22T03:40:00;22.83;77.30
77693;SHT31;66984;47.404;18.836;2023-06-22T03:41:03;22.86;77.28
77693;SHT31;66984;47.404;18.836;2023-06-22T03:42:06;22.87;77.43
77693;SHT31;66984;47.404;18.836;2023-06-22T03:43:09;22.83;77.58
77693;SHT31;66984;47.404;18.836;2023-06-22T03:44:18;22.83;77.65
77693;SHT31;66984;47.404;18.836;2023-06-22T03:45:21;22.80;77.63
77693;SHT31;66984;47.404;18.836;2023-06-22T03:46:24;22.84;77.48
77693;SHT31;66984;47.404;18.836;2023-06-22T03:47:27;22.86;77.36
77693;SHT31;66984;47.404;18.836;2023-06-22T03:48:30;22.86;77.38
77693;SHT31;66984;47.404;18.836;2023-06-22T03:49:39;22.84;77.42
77693;SHT31;66984;47.404;18.836;2023-06-22T03:50:42;22.86;77.39
77693;SHT31;66984;47.404;18.836;2023-06-22T03:51:46;22.90;77.40
77693;SHT31;66984;47.404;18.836;2023-06-22T03:52:49;22.88;77.37
77693;SHT31;66984;47.404;18.836;2023-06-22T03:53:54;22.90;77.31
77693;SHT31;66984;47.404;18.836;2023-06-22T03:55:04;22.90;77.24
77693;SHT31;66984;47.404;18.836;2023-06-22T03:56:07;22.88;77.27
77693;SHT31;66984;47.404;18.836;2023-06-22T03:57:10;22.87;77.30
77693;SHT31;66984;47.404;18.836;2023-06-22T03:58:13;22.86;77.40
77693;SHT31;66984;47.404;18.836;2023-06-22T03:59:16;22.84;77.44
77693;SHT31;66984;47.404;18.836;2023-06-22T04:00:26;22.86;77.54
77693;SHT31;66984;47.404;18.836;2023-06-22T04:01:29;22.86;77.54
77693;SHT31;66984;47.404;18.836;2023-06-22T04:02:32;22.86;77.57
77693;SHT31;66984;47.404;18.836;2023-06-22T04:03:35;22.88;77.59
77693;SHT31;66984;47.404;18.836;2023-06-22T04:04:38;22.91;77.63
77693;SHT31;66984;47.404;18.836;2023-06-22T04:05:48;22.90;77.59
77693;SHT31;66984;47.404;18.836;2023-06-22T04:06:51;22.90;77.60
77693;SHT31;66984;47.404;18.836;2023-06-22T04:08:07;22.90;77.61
77693;SHT31;66984;47.404;18.836;2023-06-22T04:09:10;22.94;77.66
77693;SHT31;66984;47.404;18.836;2023-06-22T04:10:13;22.94;77.76
77693;SHT31;66984;47.404;18.836;2023-06-22T04:11:22;22.97;77.82
77693;SHT31;66984;47.404;18.836;2023-06-22T04:12:25;22.97;77.81
77693;SHT31;66984;47.404;18.836;2023-06-22T04:13:28;22.97;77.83
77693;SHT31;66984;47.404;18.836;2023-06-22T04:14:31;22.95;77.70
77693;SHT31;66984;47.404;18.836;2023-06-22T04:15:34;22.94;77.68
77693;SHT31;66984;47.404;18.836;2023-06-22T04:16:43;22.94;77.70
77693;SHT31;66984;47.404;18.836;2023-06-22T04:17:46;22.92;77.70
77693;SHT31;66984;47.404;18.836;2023-06-22T04:18:49;22.92;77.68
77693;SHT31;66984;47.404;18.836;2023-06-22T04:19:52;22.94;77.55
77693;SHT31;66984;47.404;18.836;2023-06-22T04:20:55;22.94;77.52
77693;SHT31;66984;47.404;18.836;2023-06-22T04:22:04;22.95;77.53
77693;SHT31;66984;47.404;18.836;2023-06-22T04:23:09;22.94;77.55
77693;SHT31;66984;47.404;18.836;2023-06-22T04:24:12;22.92;77.52
77693;SHT31;66984;47.404;18.836;2023-06-22T04:25:15;22.95;77.47
77693;SHT31;66984;47.404;18.836;2023-06-22T04:26:18;22.95;77.50
77693;SHT31;66984;47.404;18.836;2023-06-22T04:27:29;22.94;77.53
77693;SHT31;66984;47.404;18.836;2023-06-22T04:28:32;22.92;77.61
77693;SHT31;66984;47.404;18.836;2023-06-22T04:29:44;22.92;77.79
77693;SHT31;66984;47.404;18.836;2023-06-22T04:30:51;22.94;78.05
77693;SHT31;66984;47.404;18.836;2023-06-22T04:31:54;22.98;78.27
77693;SHT31;66984;47.404;18.836;2023-06-22T04:32:58;22.97;78.56
77693;SHT31;66984;47.404;18.836;2023-06-22T04:34:03;23.00;78.49
77693;SHT31;66984;47.404;18.836;2023-06-22T04:35:15;22.98;78.40
77693;SHT31;66984;47.404;18.836;2023-06-22T04:36:18;23.01;78.36
77693;SHT31;66984;47.404;18.836;2023-06-22T04:37:21;23.04;78.25
77693;SHT31;66984;47.404;18.836;2023-06-22T04:38:26;23.01;78.29
77693;SHT31;66984;47.404;18.836;2023-06-22T04:39:29;23.02;78.30
77693;SHT31;66984;47.404;18.836;2023-06-22T04:40:39;23.01;78.39
77693;SHT31;66984;47.404;18.836;2023-06-22T04:41:42;23.02;78.45
77693;SHT31;66984;47.404;18.836;2023-06-22T04:42:45;23.01;78.58
77693;SHT31;66984;47.404;18.836;2023-06-22T04:43:54;23.05;78.60
77693;SHT31;66984;47.404;18.836;2023-06-22T04:45:09;23.05;78.61
77693;SHT31;66984;47.404;18.836;2023-06-22T04:46:13;23.08;78.63
77693;SHT31;66984;47.404;18.836;2023-06-22T04:47:16;23.09;78.54
77693;SHT31;66984;47.404;18.836;2023-06-22T04:48:18;23.09;78.48
77693;SHT31;66984;47.404;18.836;2023-06-22T04:49:21;23.11;78.46
77693;SHT31;66984;47.404;18.836;2023-06-22T04:50:30;23.14;78.48
77693;SHT31;66984;47.404;18.836;2023-06-22T04:51:33;23.11;78.50
77693;SHT31;66984;47.404;18.836;2023-06-22T04:52:36;23.07;78.09
77693;SHT31;66984;47.404;18.836;2023-06-22T04:53:39;23.08;78.03
77693;SHT31;66984;47.404;18.836;2023-06-22T04:54:43;23.11;78.10
77693;SHT31;66984;47.404;18.836;2023-06-22T04:56:04;23.14;78.33
77693;SHT31;66984;47.404;18.836;2023-06-22T04:57:08;23.12;78.38
77693;SHT31;66984;47.404;18.836;2023-06-22T04:58:13;23.08;78.31
77693;SHT31;66984;47.404;18.836;2023-06-22T04:59:27;23.11;78.46
77693;SHT31;66984;47.404;18.836;2023-06-22T05:00:32;23.14;78.38
77693;SHT31;66984;47.404;18.836;2023-06-22T05:01:39;23.12;78.35
77693;SHT31;66984;47.404;18.836;2023-06-22T05:02:41;23.16;78.28
77693;SHT31;66984;47.404;18.836;2023-06-22T05:03:44;23.19;78.28
77693;SHT31;66984;47.404;18.836;2023-06-22T05:04:54;23.19;78.28
77693;SHT31;66984;47.404;18.836;2023-06-22T05:05:59;23.22;78.27
77693;SHT31;66984;47.404;18.836;2023-06-22T05:07:02;23.22;78.28
77693;SHT31;66984;47.404;18.836;2023-06-22T05:08:19;23.26;78.26
77693;SHT31;66984;47.404;18.836;2023-06-22T05:09:22;23.28;78.27
77693;SHT31;66984;47.404;18.836;2023-06-22T05:10:32;23.29;78.29
77693;SHT31;66984;47.404;18.836;2023-06-22T05:11:35;23.29;78.33
77693;SHT31;66984;47.404;18.836;2023-06-22T05:12:38;23.32;78.38
77693;SHT31;66984;47.404;18.836;2023-06-22T05:13:41;23.29;78.35
77693;SHT31;66984;47.404;18.836;2023-06-22T05:14:50;23.30;78.25
77693;SHT31;66984;47.404;18.836;2023-06-22T05:15:54;23.30;78.34
77693;SHT31;66984;47.404;18.836;2023-06-22T05:17:04;23.32;78.36
77693;SHT31;66984;47.404;18.836;2023-06-22T05:18:16;23.33;78.30
77693;SHT31;66984;47.404;18.836;2023-06-22T05:19:19;23.38;78.35
77693;SHT31;66984;47.404;18.836;2023-06-22T05:20:28;23.38;78.32
77693;SHT31;66984;47.404;18.836;2023-06-22T05:21:32;23.39;78.34
77693;SHT31;66984;47.404;18.836;2023-06-22T05:22:35;23.41;78.32
77693;SHT31;66984;47.404;18.836;2023-06-22T05:23:37;23.45;78.30
77693;SHT31;66984;47.404;18.836;2023-06-22T05:24:40;23.49;78.22
77693;SHT31;66984;47.404;18.836;2023-06-22T05:25:51;23.50;78.21
77693;SHT31;66984;47.404;18.836;2023-06-22T05:26:54;23.52;78.16
77693;SHT31;66984;47.404;18.836;2023-06-22T05:27:58;23.52;78.14
77693;SHT31;66984;47.404;18.836;2023-06-22T05:29:02;23.55;78.02
77693;SHT31;66984;47.404;18.836;2023-06-22T05:30:12;23.55;77.99
77693;SHT31;66984;47.404;18.836;2023-06-22T05:31:16;23.60;77.98
77693;SHT31;66984;47.404;18.836;2023-06-22T05:32:19;23.59;78.07
77693;SHT31;66984;47.404;18.836;2023-06-22T05:33:23;23.63;78.12
77693;SHT31;66984;47.404;18.836;2023-06-22T05:34:26;23.66;78.17
77693;SHT31;66984;47.404;18.836;2023-06-22T05:35:35;23.70;78.25
77693;SHT31;66984;47.404;18.836;2023-06-22T05:36:38;23.71;78.20
77693;SHT31;66984;47.404;18.836;2023-06-22T05:37:41;23.74;78.38
77693;SHT31;66984;47.404;18.836;2023-06-22T05:38:45;23.77;78.47
77693;SHT31;66984;47.404;18.836;2023-06-22T05:39:48;23.76;78.49
77693;SHT31;66984;47.404;18.836;2023-06-22T05:40:57;23.80;78.54
77693;SHT31;66984;47.404;18.836;2023-06-22T05:42:00;23.80;78.36
77693;SHT31;66984;47.404;18.836;2023-06-22T05:43:03;23.81;78.18
77693;SHT31;66984;47.404;18.836;2023-06-22T05:44:06;23.83;78.15
77693;SHT31;66984;47.404;18.836;2023-06-22T05:45:15;23.86;78.37
77693;SHT31;66984;47.404;18.836;2023-06-22T05:46:19;23.88;78.45
77693;SHT31;66984;47.404;18.836;2023-06-22T05:47:22;23.92;78.30
77693;SHT31;66984;47.404;18.836;2023-06-22T05:48:25;23.93;79.38
77693;SHT31;66984;47.404;18.836;2023-06-22T05:49:28;23.97;80.01
77693;SHT31;66984;47.404;18.836;2023-06-22T05:50:42;23.97;79.77
77693;SHT31;66984;47.404;18.836;2023-06-22T05:51:45;24.01;79.32
77693;SHT31;66984;47.404;18.836;2023-06-22T05:52:48;23.96;77.84
77693;SHT31;66984;47.404;18.836;2023-06-22T05:53:50;24.00;77.37
77693;SHT31;66984;47.404;18.836;2023-06-22T05:54:53;24.01;77.72
77693;SHT31;66984;47.404;18.836;2023-06-22T05:56:03;24.07;77.36
77693;SHT31;66984;47.404;18.836;2023-06-22T05:57:07;24.10;76.91
77693;SHT31;66984;47.404;18.836;2023-06-22T05:58:10;24.13;76.49
77693;SHT31;66984;47.404;18.836;2023-06-22T05:59:13;24.14;75.17
77693;SHT31;66984;47.404;18.836;2023-06-22T06:00:16;24.14;74.12
77693;SHT31;66984;47.404;18.836;2023-06-22T06:01:26;24.20;73.86
77693;SHT31;66984;47.404;18.836;2023-06-22T06:02:28;24.24;74.05
77693;SHT31;66984;47.404;18.836;2023-06-22T06:03:31;24.28;74.03
77693;SHT31;66984;47.404;18.836;2023-06-22T06:04:34;24.29;74.20
77693;SHT31;66984;47.404;18.836;2023-06-22T06:05:38;24.31;73.14
77693;SHT31;66984;47.404;18.836;2023-06-22T06:06:47;24.35;73.02
77693;SHT31;66984;47.404;18.836;2023-06-22T06:07:50;24.35;73.32
77693;SHT31;66984;47.404;18.836;2023-06-22T06:09:06;24.41;73.36
77693;SHT31;66984;47.404;18.836;2023-06-22T06:10:10;24.47;73.21
77693;SHT31;66984;47.404;18.836;2023-06-22T06:11:13;24.49;73.66
77693;SHT31;66984;47.404;18.836;2023-06-22T06:12:22;24.52;74.31
77693;SHT31;66984;47.404;18.836;2023-06-22T06:13:25;24.52;73.81
77693;SHT31;66984;47.404;18.836;2023-06-22T06:14:28;24.54;73.19
77693;SHT31;66984;47.404;18.836;2023-06-22T06:15:32;24.58;72.66
77693;SHT31;66984;47.404;18.836;2023-06-22T06:16:35;24.58;71.97
77693;SHT31;66984;47.404;18.836;2023-06-22T06:17:46;24.59;72.30
77693;SHT31;66984;47.404;18.836;2023-06-22T06:18:49;24.62;72.32
77693;SHT31;66984;47.404;18.836;2023-06-22T06:19:53;24.66;71.98
77693;SHT31;66984;47.404;18.836;2023-06-22T06:20:56;24.72;73.12
77693;SHT31;66984;47.404;18.836;2023-06-22T06:21:59;24.76;73.46
77693;SHT31;66984;47.404;18.836;2023-06-22T06:23:09;24.77;71.94
77693;SHT31;66984;47.404;18.836;2023-06-22T06:24:11;24.80;72.69
77693;SHT31;66984;47.404;18.836;2023-06-22T06:25:15;24.82;73.10
77693;SHT31;66984;47.404;18.836;2023-06-22T06:26:22;24.89;72.95
77693;SHT31;66984;47.404;18.836;2023-06-22T06:27:30;24.89;70.65
77693;SHT31;66984;47.404;18.836;2023-06-22T06:28:40;24.90;69.23
77693;SHT31;66984;47.404;18.836;2023-06-22T06:29:43;24.95;70.43
77693;SHT31;66984;47.404;18.836;2023-06-22T06:30:55;25.02;71.56
77693;SHT31;66984;47.404;18.836;2023-06-22T06:31:57;25.03;71.86
77693;SHT31;66984;47.404;18.836;2023-06-22T06:33:00;25.09;71.80
77693;SHT31;66984;47.404;18.836;2023-06-22T06:34:03;25.14;73.58
77693;SHT31;66984;47.404;18.836;2023-06-22T06:35:08;25.16;72.35
77693;SHT31;66984;47.404;18.836;2023-06-22T06:36:18;25.22;73.44
77693;SHT31;66984;47.404;18.836;2023-06-22T06:37:21;25.26;73.16
77693;SHT31;66984;47.404;18.836;2023-06-22T06:38:23;25.28;72.89
77693;SHT31;66984;47.404;18.836;2023-06-22T06:39:26;25.34;72.77
77693;SHT31;66984;47.404;18.836;2023-06-22T06:40:29;25.35;70.22
77693;SHT31;66984;47.404;18.836;2023-06-22T06:41:39;25.40;73.08
77693;SHT31;66984;47.404;18.836;2023-06-22T06:42:48;25.43;73.01
77693;SHT31;66984;47.404;18.836;2023-06-22T06:43:51;25.50;72.68
77693;SHT31;66984;47.404;18.836;2023-06-22T06:44:54;25.50;72.18
77693;SHT31;66984;47.404;18.836;2023-06-22T06:45:57;25.52;72.74
77693;SHT31;66984;47.404;18.836;2023-06-22T06:47:07;25.57;72.40
77693;SHT31;66984;47.404;18.836;2023-06-22T06:48:10;25.58;72.74
77693;SHT31;66984;47.404;18.836;2023-06-22T06:49:13;25.61;71.81
77693;SHT31;66984;47.404;18.836;2023-06-22T06:50:16;25.62;71.97
77693;SHT31;66984;47.404;18.836;2023-06-22T06:51:19;25.65;71.87
77693;SHT31;66984;47.404;18.836;2023-06-22T06:52:29;25.70;71.17